Time;durP1;ratioP1;P1;durP2;ratioP2;P2;SDS_P1;SDS_P2;PMS_P1;PMS_P2;Temp;Humidity;BMP_temperature;BMP_pressure;BME280_temperature;BME280_humidity;BME280_pressure;Samples;Min_cycle;Max_cycle;Signal;HPM_P1;HPM_P2
2021/06/11 00:00:12;;;;;;;7.70;7.00;;;14.80;99.90;;;;;;5105581;27;20225;-52
2021/06/11 00:02:40;;;;;;;8.83;7.50;;;14.80;99.90;;;;;;5102090;28;20193;-50
2021/06/11 00:05:07;;;;;;;7.97;7.07;;;14.80;99.90;;;;;;5102428;28;20269;-54
2021/06/11 00:07:34;;;;;;;8.73;7.53;;;14.70;99.90;;;;;;5121814;28;20193;-50
2021/06/11 00:10:00;;;;;;;8.23;7.43;;;14.50;99.90;;;;;;5103170;27;20329;-56
2021/06/11 00:12:26;;;;;;;9.67;8.00;;;14.50;99.90;;;;;;5098862;28;20185;-47
2021/06/11 00:14:52;;;;;;;8.23;7.40;;;14.40;99.90;;;;;;5120135;28;20201;-47
2021/06/11 00:17:18;;;;;;;8.97;7.90;;;14.50;99.90;;;;;;5119849;28;20216;-54
2021/06/11 00:19:46;;;;;;;8.90;7.13;;;14.50;99.90;;;;;;5108574;28;20231;-53
2021/06/11 00:22:12;;;;;;;8.47;7.60;;;14.50;99.90;;;;;;5115804;28;20227;-55
2021/06/11 00:24:38;;;;;;;8.30;7.50;;;14.50;99.90;;;;;;5113730;28;20216;-52
2021/06/11 00:27:05;;;;;;;8.33;7.53;;;14.40;99.90;;;;;;5102340;28;20239;-56
2021/06/11 00:29:31;;;;;;;8.70;7.00;;;14.50;99.90;;;;;;5113908;28;20258;-50
2021/06/11 00:31:57;;;;;;;8.47;7.60;;;14.40;99.90;;;;;;5105708;28;20250;-48
2021/06/11 00:34:23;;;;;;;9.80;7.83;;;14.40;99.90;;;;;;5091314;27;20209;-47
2021/06/11 00:36:51;;;;;;;7.23;6.53;;;14.40;99.90;;;;;;5123198;27;20208;-49
2021/06/11 00:39:17;;;;;;;7.73;6.93;;;14.40;99.90;;;;;;5115112;27;20216;-56
2021/06/11 00:41:43;;;;;;;7.30;6.60;;;14.40;99.90;;;;;;5127630;27;20201;-53
2021/06/11 00:44:09;;;;;;;8.10;7.40;;;14.40;99.90;;;;;;5125152;27;20196;-56
2021/06/11 00:46:35;;;;;;;7.83;6.47;;;14.40;99.90;;;;;;5126051;27;20181;-50
2021/06/11 00:49:02;;;;;;;7.70;6.53;;;14.30;99.90;;;;;;5122985;27;20295;-49
2021/06/11 00:51:28;;;;;;;7.17;6.47;;;14.30;99.90;;;;;;5108557;27;20196;-50
2021/06/11 00:53:56;;;;;;;7.83;6.60;;;14.20;99.90;;;;;;5114169;27;20204;-53
2021/06/11 00:56:22;;;;;;;7.90;6.83;;;14.20;99.90;;;;;;5116396;27;20217;-50
2021/06/11 00:58:48;;;;;;;7.13;6.53;;;14.10;99.90;;;;;;5124104;27;20193;-50
2021/06/11 01:01:15;;;;;;;6.60;5.90;;;14.10;99.90;;;;;;5123869;27;20192;-52
2021/06/11 01:03:41;;;;;;;7.73;6.43;;;14.00;99.90;;;;;;5105335;27;20197;-54
2021/06/11 01:06:07;;;;;;;7.00;6.40;;;14.10;99.90;;;;;;5094571;27;20216;-50
2021/06/11 01:08:33;;;;;;;6.20;5.60;;;14.00;99.90;;;;;;5124478;27;20195;-50
2021/06/11 01:11:01;;;;;;;6.20;5.63;;;14.10;99.90;;;;;;5119252;27;20235;-52
2021/06/11 01:13:27;;;;;;;6.53;5.70;;;14.20;99.90;;;;;;5113261;27;20974;-51
2021/06/11 01:15:54;;;;;;;6.67;5.80;;;14.20;99.90;;;;;;5106415;28;20721;-49
2021/06/11 01:18:21;;;;;;;6.70;6.10;;;14.20;99.90;;;;;;5101759;27;20193;-54
2021/06/11 01:20:48;;;;;;;7.70;6.67;;;14.20;99.90;;;;;;5103263;27;20220;-52
2021/06/11 01:23:40;;;;;;;8.80;6.40;;;14.20;99.90;;;;;;5123207;27;20194;-50
2021/06/11 01:26:21;;;;;;;7.43;6.73;;;14.20;99.90;;;;;;5101119;27;20205;-52
2021/06/11 01:28:49;;;;;;;6.77;6.07;;;14.20;99.90;;;;;;5105476;28;20203;-52
2021/06/11 01:31:16;;;;;;;8.60;6.70;;;14.10;99.90;;;;;;5101860;28;20216;-48
2021/06/11 01:33:44;;;;;;;7.73;7.03;;;14.10;99.90;;;;;;5117204;27;20200;-52
2021/06/11 01:36:14;;;;;;;7.00;6.17;;;14.00;99.90;;;;;;5109084;27;20971;-52
2021/06/11 01:38:45;;;;;;;7.90;7.20;;;13.90;99.90;;;;;;5125191;27;20188;-50
2021/06/11 01:41:16;;;;;;;9.70;7.57;;;13.90;99.90;;;;;;5121230;27;20233;-51
2021/06/11 01:43:45;;;;;;;8.13;7.00;;;13.90;99.90;;;;;;5118646;27;20200;-51
2021/06/11 01:46:12;;;;;;;7.13;6.53;;;13.90;99.90;;;;;;5100374;27;20198;-49
2021/06/11 01:48:40;;;;;;;7.53;6.83;;;13.90;99.90;;;;;;5102988;27;20292;-50
2021/06/11 01:51:09;;;;;;;8.33;7.53;;;13.90;99.90;;;;;;5114638;27;20216;-49
2021/06/11 01:53:37;;;;;;;8.83;7.90;;;13.90;99.90;;;;;;5104926;27;20196;-50
2021/06/11 01:56:04;;;;;;;8.70;7.70;;;13.80;99.90;;;;;;5125231;27;20220;-49
2021/06/11 01:58:32;;;;;;;9.13;8.23;;;13.90;99.90;;;;;;5111936;27;20459;-50
2021/06/11 02:00:58;;;;;;;10.40;8.77;;;13.90;99.90;;;;;;5107125;27;20213;-50
2021/06/11 02:03:26;;;;;;;9.30;8.27;;;13.80;99.90;;;;;;5101734;28;20188;-50
2021/06/11 02:05:53;;;;;;;12.23;9.33;;;13.80;99.90;;;;;;5105534;28;20198;-51
2021/06/11 02:08:20;;;;;;;12.73;8.67;;;13.70;99.90;;;;;;5100540;27;20196;-49
2021/06/11 02:10:47;;;;;;;10.67;8.80;;;13.70;99.90;;;;;;5105462;27;20228;-50
2021/06/11 02:13:14;;;;;;;11.93;7.73;;;13.70;99.90;;;;;;5099984;27;20192;-49
2021/06/11 02:15:42;;;;;;;10.17;8.07;;;13.80;99.90;;;;;;5102856;27;20209;-48
2021/06/11 02:18:09;;;;;;;8.80;7.93;;;13.80;99.90;;;;;;5098894;27;20197;-51
2021/06/11 02:20:36;;;;;;;10.07;7.17;;;13.80;99.90;;;;;;5113159;27;20212;-53
2021/06/11 02:23:04;;;;;;;8.57;7.33;;;13.70;99.90;;;;;;5104434;27;20225;-49
2021/06/11 02:25:30;;;;;;;8.00;7.30;;;13.60;99.90;;;;;;5116731;27;20200;-51
2021/06/11 02:27:58;;;;;;;7.87;7.20;;;13.70;99.90;;;;;;5125505;27;20199;-49
2021/06/11 02:30:24;;;;;;;10.40;7.53;;;13.70;99.90;;;;;;5115351;27;20220;-49
2021/06/11 02:32:52;;;;;;;9.27;8.20;;;13.80;99.90;;;;;;5124269;27;20257;-49
2021/06/11 02:35:21;;;;;;;8.43;7.63;;;13.80;99.90;;;;;;5121166;27;20924;-46
2021/06/11 02:37:48;;;;;;;7.50;6.80;;;13.70;99.90;;;;;;5125199;27;20240;-49
2021/06/11 02:40:16;;;;;;;10.33;8.13;;;13.70;99.90;;;;;;5100299;27;20224;-48
2021/06/11 02:42:44;;;;;;;10.80;8.73;;;13.60;99.90;;;;;;5123710;27;20208;-48
2021/06/11 02:45:14;;;;;;;8.80;7.90;;;13.60;99.90;;;;;;5109172;27;20216;-47
2021/06/11 02:47:43;;;;;;;10.63;9.53;;;13.50;99.90;;;;;;5104303;28;20239;-48
2021/06/11 02:50:15;;;;;;;10.57;9.20;;;13.50;99.90;;;;;;5112205;27;20231;-49
2021/06/11 02:52:47;;;;;;;12.37;9.87;;;13.50;99.90;;;;;;5124381;27;20955;-49
2021/06/11 02:55:15;;;;;;;12.70;10.43;;;13.60;99.90;;;;;;5095023;27;20213;-49
2021/06/11 02:57:48;;;;;;;11.30;10.10;;;13.60;99.90;;;;;;5115024;27;20217;-50
2021/06/11 03:00:15;;;;;;;10.50;8.83;;;13.50;99.90;;;;;;5103792;27;20662;-49
2021/06/11 03:02:46;;;;;;;13.10;10.93;;;13.50;99.90;;;;;;5119934;27;20205;-52
2021/06/11 03:05:17;;;;;;;16.27;13.03;;;13.50;99.90;;;;;;5100108;27;20204;-51
2021/06/11 03:07:46;;;;;;;14.30;11.97;;;13.50;99.90;;;;;;5103918;28;20264;-52
2021/06/11 03:10:14;;;;;;;18.37;15.33;;;13.50;99.90;;;;;;5093412;27;20252;-51
2021/06/11 03:12:43;;;;;;;20.27;15.47;;;13.40;99.90;;;;;;5122672;27;20204;-51
2021/06/11 03:15:10;;;;;;;16.67;14.83;;;13.40;99.90;;;;;;5118931;27;20201;-48
2021/06/11 03:17:43;;;;;;;17.63;14.13;;;13.40;99.90;;;;;;5100613;28;20205;-49
2021/06/11 03:20:13;;;;;;;19.10;14.00;;;13.40;99.90;;;;;;5103196;27;20220;-52
2021/06/11 03:22:49;;;;;;;23.07;17.03;;;13.50;99.90;;;;;;5122992;27;20267;-50
2021/06/11 03:25:21;;;;;;;18.93;14.97;;;13.50;99.90;;;;;;5100993;27;20212;-49
2021/06/11 03:27:52;;;;;;;22.60;16.40;;;13.50;99.90;;;;;;5106795;27;20665;-49
2021/06/11 03:30:21;;;;;;;22.03;17.27;;;13.50;99.90;;;;;;5112599;27;20308;-50
2021/06/11 03:32:51;;;;;;;20.40;16.67;;;13.40;99.90;;;;;;5104554;27;20614;-50
2021/06/11 03:35:23;;;;;;;16.67;14.70;;;13.40;99.90;;;;;;5104312;27;20189;-50
2021/06/11 03:37:53;;;;;;;18.97;14.83;;;13.40;99.90;;;;;;5103604;28;20593;-52
2021/06/11 03:40:24;;;;;;;19.87;15.57;;;13.40;99.90;;;;;;5088986;28;20216;-50
2021/06/11 03:42:51;;;;;;;17.80;14.50;;;13.50;99.90;;;;;;5124474;27;20197;-52
2021/06/11 03:45:17;;;;;;;19.53;15.47;;;13.50;99.90;;;;;;5115068;27;20276;-49
2021/06/11 03:47:46;;;;;;;17.33;15.17;;;13.50;99.90;;;;;;5103242;28;20188;-50
2021/06/11 03:50:16;;;;;;;19.30;16.30;;;13.50;99.90;;;;;;5117142;28;20588;-49
2021/06/11 03:52:44;;;;;;;18.83;15.57;;;13.50;99.90;;;;;;5123820;28;20218;-51
2021/06/11 03:55:17;;;;;;;20.97;16.10;;;13.60;99.90;;;;;;5113510;28;20208;-52
2021/06/11 03:57:48;;;;;;;22.30;16.13;;;13.60;99.90;;;;;;5109406;28;20215;-49
2021/06/11 04:00:16;;;;;;;22.33;16.63;;;13.60;99.90;;;;;;5098873;28;20274;-51
2021/06/11 04:02:42;;;;;;;22.20;17.67;;;13.60;99.90;;;;;;5106628;28;20807;-51
2021/06/11 04:05:09;;;;;;;21.70;17.57;;;13.70;99.90;;;;;;5120984;27;20196;-53
2021/06/11 04:07:43;;;;;;;22.77;17.50;;;13.70;99.90;;;;;;5118421;27;20196;-52
2021/06/11 04:10:15;;;;;;;24.73;18.63;;;13.70;99.90;;;;;;5125268;27;20285;-51
2021/06/11 04:12:43;;;;;;;27.00;19.67;;;13.70;99.90;;;;;;5110363;27;20193;-51
2021/06/11 04:15:11;;;;;;;27.87;21.70;;;13.70;99.90;;;;;;5112635;27;20197;-52
2021/06/11 04:17:41;;;;;;;23.63;19.07;;;13.80;99.90;;;;;;5126350;27;20220;-49
2021/06/11 04:20:14;;;;;;;28.00;21.10;;;13.90;99.90;;;;;;5123312;27;20216;-50
2021/06/11 04:22:44;;;;;;;36.27;24.80;;;13.90;99.90;;;;;;5124993;27;20252;-54
2021/06/11 04:25:14;;;;;;;32.27;25.27;;;14.00;99.90;;;;;;5122092;27;20199;-55
2021/06/11 04:27:42;;;;;;;37.97;26.63;;;14.10;99.90;;;;;;5126657;27;20186;-50
2021/06/11 04:30:10;;;;;;;38.97;26.90;;;14.10;99.90;;;;;;5123517;27;20928;-51
2021/06/11 04:32:37;;;;;;;31.50;24.67;;;14.20;99.90;;;;;;5127748;27;20215;-53
2021/06/11 04:35:04;;;;;;;34.07;24.67;;;14.20;99.90;;;;;;5122601;27;22867;-50
2021/06/11 04:37:30;;;;;;;41.40;30.03;;;14.30;99.90;;;;;;5133157;27;20215;-54
2021/06/11 04:39:56;;;;;;;41.80;29.90;;;14.40;99.90;;;;;;5101306;27;20209;-52
2021/06/11 04:42:23;;;;;;;40.17;29.40;;;14.50;99.90;;;;;;5105002;27;20208;-49
2021/06/11 04:44:50;;;;;;;40.40;30.17;;;14.50;99.90;;;;;;5105688;27;20967;-51
2021/06/11 04:47:16;;;;;;;39.10;29.33;;;14.60;99.90;;;;;;5148278;27;20207;-51
2021/06/11 04:49:42;;;;;;;66.77;41.67;;;14.60;99.90;;;;;;5121059;27;20228;-49
2021/06/11 04:52:08;;;;;;;63.47;42.30;;;14.70;99.90;;;;;;5119677;27;20720;-49
2021/06/11 04:54:34;;;;;;;41.70;32.10;;;14.80;99.90;;;;;;5112273;27;20836;-49
2021/06/11 04:57:01;;;;;;;38.30;30.43;;;15.00;99.90;;;;;;5104400;28;20220;-51
2021/06/11 04:59:28;;;;;;;44.93;33.03;;;15.00;99.90;;;;;;5100132;27;20790;-49
2021/06/11 05:01:54;;;;;;;48.03;33.30;;;15.00;99.90;;;;;;5117811;27;20200;-50
2021/06/11 05:04:23;;;;;;;63.17;43.23;;;15.10;99.90;;;;;;5119475;27;20257;-52
2021/06/11 05:06:49;;;;;;;67.30;45.80;;;15.10;99.90;;;;;;5117347;27;20368;-49
2021/06/11 05:09:15;;;;;;;63.97;44.13;;;15.20;99.90;;;;;;5124669;27;20597;-47
2021/06/11 05:11:41;;;;;;;63.77;45.77;;;15.30;99.90;;;;;;5118219;27;20696;-48
2021/06/11 05:14:07;;;;;;;65.83;46.00;;;15.40;99.90;;;;;;5103191;27;20201;-53
2021/06/11 05:16:35;;;;;;;66.00;46.73;;;15.50;99.90;;;;;;5107142;27;20234;-50
2021/06/11 05:19:03;;;;;;;72.27;47.40;;;15.60;99.90;;;;;;5105948;27;20253;-53
2021/06/11 05:21:29;;;;;;;71.17;46.40;;;15.70;99.90;;;;;;5114936;27;20227;-51
2021/06/11 05:23:55;;;;;;;64.30;44.77;;;15.80;99.90;;;;;;5119551;27;20257;-52
2021/06/11 05:26:21;;;;;;;70.00;45.83;;;15.90;99.90;;;;;;5109934;27;20251;-52
2021/06/11 05:28:47;;;;;;;61.50;43.47;;;16.00;99.90;;;;;;5107721;27;20181;-51
2021/06/11 05:31:13;;;;;;;69.50;45.30;;;16.10;99.90;;;;;;5101219;27;20620;-50
2021/06/11 05:33:41;;;;;;;63.23;45.97;;;16.10;99.90;;;;;;5111462;27;20925;-50
2021/06/11 05:36:07;;;;;;;66.47;45.33;;;16.20;99.90;;;;;;5105981;27;20304;-55
2021/06/11 05:38:33;;;;;;;65.87;45.50;;;16.20;99.90;;;;;;5097349;27;20745;-51
2021/06/11 05:41:01;;;;;;;67.73;45.97;;;16.30;99.90;;;;;;5120453;27;20236;-50
2021/06/11 05:43:28;;;;;;;65.50;43.77;;;16.40;99.90;;;;;;5109072;27;20745;-50
2021/06/11 05:45:54;;;;;;;66.80;45.57;;;16.40;99.90;;;;;;5106932;27;20193;-52
2021/06/11 05:48:20;;;;;;;65.00;44.70;;;15.80;99.90;;;;;;5098279;27;20666;-50
2021/06/11 05:50:48;;;;;;;58.10;42.27;;;16.60;99.90;;;;;;5111843;27;20216;-51
2021/06/11 05:53:21;;;;;;;61.93;41.97;;;;;;;;;;5116700;27;20253;-52
2021/06/11 05:55:48;;;;;;;57.37;40.27;;;17.00;99.90;;;;;;5098477;27;20204;-51
2021/06/11 05:58:14;;;;;;;56.10;39.97;;;16.80;99.90;;;;;;5105380;28;20193;-53
2021/06/11 06:00:40;;;;;;;48.00;36.07;;;17.00;99.90;;;;;;5101299;28;20939;-51
2021/06/11 06:03:06;;;;;;;50.30;36.57;;;17.10;99.90;;;;;;5094035;27;20849;-49
2021/06/11 06:05:32;;;;;;;50.03;35.73;;;17.20;99.90;;;;;;5111916;27;20246;-51
2021/06/11 06:08:00;;;;;;;42.90;31.67;;;17.20;99.90;;;;;;5120925;27;20193;-49
2021/06/11 06:10:26;;;;;;;43.37;32.40;;;17.30;99.90;;;;;;5109095;27;20215;-49
2021/06/11 06:12:52;;;;;;;42.27;32.03;;;17.40;99.90;;;;;;5120925;27;20239;-48
2021/06/11 06:15:18;;;;;;;37.90;28.97;;;17.50;99.90;;;;;;5134410;27;20188;-47
2021/06/11 06:17:45;;;;;;;42.77;30.07;;;17.60;99.90;;;;;;5115183;27;20217;-54
2021/06/11 06:20:13;;;;;;;38.17;27.73;;;;;;;;;;5122071;27;20268;-50
2021/06/11 06:22:40;;;;;;;23.83;19.57;;;17.80;99.90;;;;;;5112349;27;20201;-50
2021/06/11 06:25:09;;;;;;;35.70;24.97;;;17.80;99.90;;;;;;5107089;27;20209;-50
2021/06/11 06:27:37;;;;;;;29.27;21.50;;;17.90;99.90;;;;;;5113966;27;20273;-48
2021/06/11 06:30:03;;;;;;;31.20;23.20;;;18.00;99.90;;;;;;5116302;27;20916;-52
2021/06/11 06:32:30;;;;;;;27.13;19.77;;;18.10;99.90;;;;;;5098238;27;20659;-51
2021/06/11 06:34:57;;;;;;;17.30;14.73;;;18.20;99.90;;;;;;5137325;27;20283;-53
2021/06/11 06:37:23;;;;;;;23.00;16.63;;;18.20;99.90;;;;;;5119512;27;20208;-53
2021/06/11 06:39:50;;;;;;;19.70;15.80;;;18.20;99.90;;;;;;5119946;27;20217;-53
2021/06/11 06:42:18;;;;;;;18.67;14.97;;;18.30;99.90;;;;;;5123545;27;20208;-49
2021/06/11 06:44:45;;;;;;;19.53;16.10;;;18.40;99.90;;;;;;5129051;27;20881;-53
2021/06/11 06:47:11;;;;;;;19.40;13.27;;;18.60;99.90;;;;;;5126662;27;20199;-50
2021/06/11 06:49:37;;;;;;;15.70;12.03;;;18.60;99.90;;;;;;5107789;27;20219;-51
2021/06/11 06:52:04;;;;;;;14.20;12.63;;;18.70;99.90;;;;;;5116231;27;20209;-51
2021/06/11 06:54:30;;;;;;;14.10;11.90;;;18.80;99.90;;;;;;5116848;27;20196;-50
2021/06/11 06:56:56;;;;;;;16.03;12.87;;;18.80;99.90;;;;;;5110995;27;20307;-51
2021/06/11 06:59:24;;;;;;;14.83;12.60;;;18.90;99.90;;;;;;5099689;27;20273;-51
2021/06/11 07:01:56;;;;;;;14.87;12.83;;;19.00;99.90;;;;;;5115202;27;20225;-49
2021/06/11 07:04:22;;;;;;;17.70;14.57;;;19.10;99.90;;;;;;5082200;27;20212;-51
2021/06/11 07:06:50;;;;;;;17.03;14.33;;;19.20;99.90;;;;;;5132568;27;20557;-51
2021/06/11 07:09:16;;;;;;;16.90;13.47;;;19.30;99.90;;;;;;5104189;27;20221;-55
2021/06/11 07:11:42;;;;;;;16.23;13.53;;;19.40;99.90;;;;;;5133837;27;20392;-50
2021/06/11 07:14:08;;;;;;;14.00;12.50;;;19.40;99.90;;;;;;5126067;27;20609;-52
2021/06/11 07:16:36;;;;;;;13.90;10.37;;;19.50;99.90;;;;;;5106963;27;20212;-50
2021/06/11 07:19:02;;;;;;;18.30;13.63;;;19.60;99.90;;;;;;5130986;27;20192;-49
2021/06/11 07:21:29;;;;;;;16.23;13.07;;;19.70;99.90;;;;;;5104141;27;20201;-52
2021/06/11 07:23:55;;;;;;;13.97;11.80;;;19.80;99.90;;;;;;5109108;27;20803;-50
2021/06/11 07:26:21;;;;;;;16.27;12.90;;;19.90;99.90;;;;;;5121590;27;20191;-51
2021/06/11 07:28:47;;;;;;;15.97;12.83;;;20.00;99.90;;;;;;5110000;27;20612;-50
2021/06/11 07:31:14;;;;;;;15.67;10.97;;;20.10;99.90;;;;;;5115578;27;20232;-53
2021/06/11 07:33:41;;;;;;;14.03;10.30;;;20.10;99.90;;;;;;5106235;27;20205;-52
2021/06/11 07:36:08;;;;;;;13.27;10.60;;;20.30;99.90;;;;;;5087500;28;20246;-51
2021/06/11 07:38:34;;;;;;;16.27;11.20;;;20.30;99.90;;;;;;5107961;27;20188;-52
2021/06/11 07:41:00;;;;;;;14.30;11.07;;;20.40;99.90;;;;;;5107148;27;20229;-49
2021/06/11 07:43:27;;;;;;;14.40;10.00;;;20.40;99.90;;;;;;5125367;27;20195;-52
2021/06/11 07:45:53;;;;;;;15.13;11.40;;;20.60;99.90;;;;;;5121273;27;20260;-49
2021/06/11 07:48:20;;;;;;;16.43;11.53;;;20.60;99.90;;;;;;5095654;27;20196;-55
2021/06/11 07:50:47;;;;;;;11.87;9.17;;;20.70;99.90;;;;;;5105597;27;20225;-52
2021/06/11 07:53:14;;;;;;;14.80;8.20;;;20.80;99.90;;;;;;5117226;27;20208;-50
2021/06/11 07:55:40;;;;;;;9.87;8.13;;;20.80;99.90;;;;;;5097019;28;20193;-52
2021/06/11 07:58:07;;;;;;;9.57;8.17;;;20.90;99.90;;;;;;5105051;28;20354;-48
2021/06/11 08:00:33;;;;;;;9.37;7.73;;;21.00;99.90;;;;;;5114991;28;20235;-50
2021/06/11 08:03:00;;;;;;;8.23;6.20;;;21.10;99.90;;;;;;5105597;28;20197;-51
2021/06/11 08:05:28;;;;;;;6.93;5.57;;;21.20;99.90;;;;;;5122398;28;20185;-49
2021/06/11 08:07:56;;;;;;;5.00;4.50;;;21.20;99.90;;;;;;5106126;28;20192;-51
2021/06/11 08:10:23;;;;;;;5.57;4.60;;;21.30;99.90;;;;;;5118038;28;20705;-50
2021/06/11 08:12:49;;;;;;;6.07;4.30;;;21.40;99.90;;;;;;5114308;28;20299;-54
2021/06/11 08:15:15;;;;;;;3.90;3.60;;;21.50;99.90;;;;;;5106670;28;20201;-53
2021/06/11 08:17:42;;;;;;;4.80;3.50;;;21.60;99.90;;;;;;5105255;27;20212;-53
2021/06/11 08:20:10;;;;;;;4.63;3.43;;;21.60;99.90;;;;;;5116618;27;20220;-50
2021/06/11 08:22:37;;;;;;;3.10;2.90;;;21.70;99.90;;;;;;5114212;27;20556;-51
2021/06/11 08:25:06;;;;;;;4.27;3.37;;;21.80;99.90;;;;;;5114211;27;20212;-51
2021/06/11 08:27:32;;;;;;;5.50;3.20;;;21.90;99.30;;;;;;5116502;28;20200;-51
2021/06/11 08:29:58;;;;;;;3.43;3.13;;;21.90;99.00;;;;;;5119669;28;20204;-53
2021/06/11 08:32:24;;;;;;;3.40;2.60;;;22.00;98.90;;;;;;5114959;28;20189;-51
2021/06/11 08:34:50;;;;;;;5.60;3.90;;;22.00;98.90;;;;;;5097947;28;20189;-52
2021/06/11 08:37:19;;;;;;;4.43;3.77;;;22.20;98.60;;;;;;5108307;28;20216;-52
2021/06/11 08:39:47;;;;;;;4.93;3.53;;;22.20;98.10;;;;;;5095656;27;20278;-53
2021/06/11 08:42:15;;;;;;;4.67;3.40;;;22.20;98.00;;;;;;5101191;27;20198;-51
2021/06/11 08:44:42;;;;;;;3.80;3.50;;;22.30;97.70;;;;;;5113522;27;20708;-51
2021/06/11 08:47:09;;;;;;;4.17;3.80;;;22.40;97.70;;;;;;5110115;27;20197;-52
2021/06/11 08:49:36;;;;;;;4.37;3.97;;;22.60;97.10;;;;;;5108333;27;20216;-55
2021/06/11 08:52:02;;;;;;;4.33;3.93;;;22.50;96.50;;;;;;5119740;27;20193;-54
2021/06/11 08:54:28;;;;;;;7.97;4.30;;;22.50;96.70;;;;;;5123250;27;20279;-49
2021/06/11 08:56:55;;;;;;;4.37;3.63;;;22.60;97.00;;;;;;5108228;27;20701;-50
2021/06/11 08:59:22;;;;;;;4.63;3.73;;;22.60;97.20;;;;;;5105245;27;20230;-55
2021/06/11 09:01:50;;;;;;;3.67;3.37;;;22.70;97.20;;;;;;5123039;27;20577;-50
2021/06/11 09:04:36;;;;;;;3.77;3.37;;;22.60;96.60;;;;;;5113626;27;23554;-51
2021/06/11 09:07:19;;;;;;;4.10;3.30;;;22.60;96.40;;;;;;5128778;27;20669;-53
2021/06/11 09:09:48;;;;;;;3.80;3.50;;;22.70;96.60;;;;;;5115924;27;20695;-51
2021/06/11 09:12:34;;;;;;;3.53;3.23;;;22.80;96.50;;;;;;5118582;27;20271;-55
2021/06/11 09:15:09;;;;;;;5.70;2.90;;;22.80;96.30;;;;;;5113998;27;20208;-55
2021/06/11 09:17:41;;;;;;;3.63;2.60;;;23.00;95.30;;;;;;5112555;27;20224;-55
2021/06/11 09:20:12;;;;;;;3.50;3.00;;;22.90;95.60;;;;;;5109022;27;20219;-55
2021/06/11 09:22:44;;;;;;;3.47;3.28;;;23.00;95.80;;;;;;5141412;27;20706;-48
2021/06/11 09:25:28;;;;;;;5.77;4.30;;;23.00;95.90;;;;;;5105932;27;20204;-55
2021/06/11 09:27:56;;;;;;;6.77;3.97;;;23.00;95.30;;;;;;5108429;27;20262;-48
2021/06/11 09:30:30;;;;;;;4.80;4.40;;;23.00;95.50;;;;;;5132055;27;20216;-55
2021/06/11 09:33:01;;;;;;;6.50;4.73;;;23.10;95.60;;;;;;5112150;27;20209;-51
2021/06/11 09:35:31;;;;;;;6.33;5.10;;;23.10;95.40;;;;;;5113780;27;20252;-53
2021/06/11 09:38:17;;;;;;;5.97;5.43;;;23.10;95.40;;;;;;5125219;27;20221;-53
2021/06/11 09:40:45;;;;;;;5.93;5.00;;;23.10;95.10;;;;;;5114001;27;20697;-50
2021/06/11 09:43:12;;;;;;;5.72;5.22;;;23.00;95.80;;;;;;5098756;27;20261;-54
2021/06/11 09:45:40;;;;;;;7.18;5.95;;;23.10;95.90;;;;;;5122509;27;20296;-49
2021/06/11 09:48:21;;;;;;;5.47;4.97;;;23.10;95.60;;;;;;5110407;27;20257;-54
2021/06/11 09:50:51;;;;;;;5.33;4.87;;;23.10;95.60;;;;;;5116559;27;20220;-53
2021/06/11 09:53:23;;;;;;;9.07;5.10;;;23.20;95.80;;;;;;5118151;27;20212;-53
2021/06/11 09:55:51;;;;;;;6.37;4.97;;;23.30;95.50;;;;;;5098162;27;20276;-49
2021/06/11 09:58:20;;;;;;;6.28;5.03;;;23.40;95.20;;;;;;5116424;27;20236;-53
2021/06/11 10:00:52;;;;;;;5.43;4.93;;;23.40;95.40;;;;;;5111740;27;20217;-49
2021/06/11 10:03:19;;;;;;;4.78;4.30;;;23.40;95.40;;;;;;5125556;27;20330;-52
2021/06/11 10:05:47;;;;;;;5.77;5.17;;;23.50;95.30;;;;;;5102002;27;20253;-49
2021/06/11 10:08:14;;;;;;;4.80;4.27;;;23.60;94.80;;;;;;5114828;27;20206;-53
2021/06/11 10:10:42;;;;;;;5.72;4.47;;;23.60;95.00;;;;;;5116933;27;20242;-51
2021/06/11 10:13:11;;;;;;;5.40;4.90;;;23.60;95.20;;;;;;5101521;27;20217;-54
2021/06/11 10:15:37;;;;;;;6.55;5.45;;;23.70;95.10;;;;;;5110202;27;20201;-51
2021/06/11 10:18:05;;;;;;;7.70;6.25;;;23.70;95.10;;;;;;5098347;27;20211;-55
2021/06/11 10:20:31;;;;;;;6.35;5.75;;;23.70;94.70;;;;;;5123576;27;20303;-53
2021/06/11 10:22:58;;;;;;;5.63;5.13;;;23.60;94.60;;;;;;5112333;27;20209;-49
2021/06/11 10:25:25;;;;;;;6.55;5.80;;;23.60;94.90;;;;;;5139634;27;20283;-47
2021/06/11 10:27:52;;;;;;;7.03;5.97;;;23.50;94.50;;;;;;5102027;27;20190;-52
2021/06/11 10:30:19;;;;;;;6.78;6.13;;;23.70;94.30;;;;;;5123078;27;20238;-49
2021/06/11 10:32:48;;;;;;;8.00;5.50;;;23.80;94.00;;;;;;5125992;27;20225;-50
2021/06/11 10:35:42;;;;;;;7.10;6.25;;;23.90;94.00;;;;;;5130095;27;20242;-50
2021/06/11 10:38:32;;;;;;;8.45;5.68;;;24.10;93.40;;;;;;5121804;27;20239;-49
2021/06/11 10:41:01;;;;;;;7.43;6.28;;;24.20;93.50;;;;;;5122694;27;20217;-51
2021/06/11 10:43:35;;;;;;;7.47;5.85;;;24.20;93.90;;;;;;5109996;27;20204;-55
2021/06/11 10:46:01;;;;;;;7.13;6.53;;;24.30;93.80;;;;;;5111581;27;20940;-54
2021/06/11 10:49:01;;;;;;;5.70;5.03;;;24.40;93.80;;;;;;5113814;27;20196;-51
2021/06/11 10:51:39;;;;;;;7.40;5.93;;;24.40;93.60;;;;;;5121927;27;20212;-53
2021/06/11 10:54:28;;;;;;;5.95;5.28;;;24.30;92.70;;;;;;5110555;27;20197;-49
2021/06/11 10:57:15;;;;;;;5.93;5.10;;;24.20;92.50;;;;;;5107179;27;20842;-54
2021/06/11 10:59:43;;;;;;;7.43;5.32;;;24.10;93.70;;;;;;5096532;27;20757;-50
2021/06/11 11:02:10;;;;;;;7.75;4.80;;;24.00;93.70;;;;;;5116610;27;20291;-51
2021/06/11 11:04:39;;;;;;;8.38;5.18;;;24.00;93.50;;;;;;5116227;27;20206;-50
2021/06/11 11:07:34;;;;;;;6.78;5.32;;;23.90;93.60;;;;;;5128169;27;20180;-49
2021/06/11 11:10:02;;;;;;;11.13;5.18;;;23.90;93.20;;;;;;5107726;27;20217;-50
2021/06/11 11:12:31;;;;;;;4.55;4.15;;;23.90;93.60;;;;;;5119203;27;20199;-50
2021/06/11 11:14:58;;;;;;;6.97;4.38;;;23.90;93.90;;;;;;5104137;27;20205;-50
2021/06/11 11:17:25;;;;;;;5.57;4.45;;;23.90;93.90;;;;;;5119338;27;20216;-51
2021/06/11 11:19:56;;;;;;;6.03;4.75;;;24.10;93.50;;;;;;5120318;27;20204;-50
2021/06/11 11:22:27;;;;;;;4.30;3.92;;;24.20;93.70;;;;;;5122193;27;20277;-47
2021/06/11 11:24:56;;;;;;;7.47;4.95;;;24.30;93.90;;;;;;5113147;27;20292;-52
2021/06/11 11:27:22;;;;;;;4.72;4.32;;;24.40;93.40;;;;;;5118934;27;20272;-51
2021/06/11 11:29:49;;;;;;;4.05;3.75;;;24.50;93.30;;;;;;5107937;27;20225;-50
2021/06/11 11:32:15;;;;;;;3.83;3.58;;;24.70;93.20;;;;;;5117343;27;20208;-49
2021/06/11 11:34:41;;;;;;;5.93;5.28;;;24.80;92.40;;;;;;5109683;27;20195;-55
2021/06/11 11:37:23;;;;;;;5.68;4.82;;;24.70;91.50;;;;;;5089194;27;20217;-53
2021/06/11 11:39:49;;;;;;;5.45;4.95;;;24.50;91.70;;;;;;5100994;28;20197;-51
2021/06/11 11:42:17;;;;;;;7.97;6.68;;;24.60;92.10;;;;;;5124944;27;20233;-48
2021/06/11 11:44:43;;;;;;;11.55;10.45;;;24.50;91.70;;;;;;5139840;27;20184;-51
2021/06/11 11:47:10;;;;;;;6.47;3.92;;;24.50;92.60;;;;;;5090645;27;20296;-48
2021/06/11 11:49:36;;;;;;;7.95;5.40;;;24.80;92.50;;;;;;5109458;27;20216;-53
2021/06/11 11:52:03;;;;;;;6.90;5.00;;;24.80;91.50;;;;;;5104453;27;20205;-47
2021/06/11 11:54:31;;;;;;;6.50;4.50;;;24.80;91.50;;;;;;5109261;27;20219;-51
2021/06/11 11:56:58;;;;;;;4.30;3.67;;;24.90;91.40;;;;;;5107737;27;20384;-48
2021/06/11 11:59:25;;;;;;;6.38;4.88;;;25.10;91.50;;;;;;5133959;27;20231;-47
2021/06/11 12:01:52;;;;;;;5.20;4.75;;;25.20;90.40;;;;;;5106722;27;20196;-46
2021/06/11 12:04:18;;;;;;;5.50;4.97;;;25.40;89.60;;;;;;5111817;28;20193;-51
2021/06/11 12:06:45;;;;;;;5.38;4.88;;;25.50;88.60;;;;;;5095297;28;20276;-50
2021/06/11 12:09:11;;;;;;;5.85;5.25;;;25.30;88.20;;;;;;5097759;28;20258;-48
2021/06/11 12:11:38;;;;;;;5.00;4.10;;;25.10;88.80;;;;;;5099451;28;20659;-49
2021/06/11 12:14:04;;;;;;;3.83;3.55;;;24.90;90.10;;;;;;5098648;28;20201;-46
2021/06/11 12:16:32;;;;;;;4.45;4.07;;;24.80;90.00;;;;;;5101426;28;20193;-49
2021/06/11 12:18:59;;;;;;;9.02;4.82;;;24.90;90.40;;;;;;5099538;28;22051;-51
2021/06/11 12:21:26;;;;;;;4.70;4.30;;;24.80;89.80;;;;;;5115137;28;20189;-47
2021/06/11 12:23:52;;;;;;;4.82;4.40;;;24.70;90.00;;;;;;5104928;28;20284;-50
2021/06/11 12:26:18;;;;;;;4.43;4.03;;;24.80;89.80;;;;;;5116884;27;20189;-50
2021/06/11 12:28:44;;;;;;;4.68;4.00;;;24.80;89.20;;;;;;5109961;27;20201;-49
2021/06/11 12:31:11;;;;;;;4.55;3.88;;;24.90;89.80;;;;;;5111772;27;20209;-48
2021/06/11 12:33:39;;;;;;;4.22;3.83;;;25.10;89.90;;;;;;5109339;27;20193;-47
2021/06/11 12:36:05;;;;;;;3.92;3.60;;;25.30;89.50;;;;;;5119518;27;20219;-51
2021/06/11 12:38:32;;;;;;;4.97;4.43;;;25.50;90.10;;;;;;5111044;27;20213;-46
2021/06/11 12:40:59;;;;;;;4.90;4.45;;;25.90;87.70;;;;;;5101122;27;20217;-48
2021/06/11 12:44:14;;;;;;;4.45;3.30;;;26.00;87.10;;;;;;5104471;27;20339;-51